Wanhe — 3FJH7 — position and weather

sailwx.info

Track history (hours):
 
Tides and Currents Weather Stations Pressure Air Temp Water Temp Dewpoint Dewpoint Depression Visibility Wind Speed Wind Dir Waves Ship Positions

Wanhe

Last reported at 2017-Nov-18 13:50 UTC. Time now 2018-Feb-20 10:03 UTC.
Position N 01°15' E 103°52'.
Warning: this ship's position is months out of date.

Length 88 m; draft 5.3 m.

Type: Other ship. MMSI: 371521000.

Date/timePositionNaut miles runAvg speedWind from/ knotsBaromVisibWave heightAir tempDewpointWater temp
2017-Nov-18 13:50N 01°15' E 103°52'0 0.0
2017-Nov-18 12:08N 01°15' E 103°52'0 0.0
2017-Nov-18 10:02N 01°15' E 103°52'0 0.6
2017-Nov-18 09:56N 01°15' E 103°52'0 0.1
2017-Nov-18 09:14N 01°15' E 103°52'0 0.3
2017-Nov-18 08:56N 01°15' E 103°52'0 0.0
2017-Nov-18 08:26N 01°15' E 103°52'0 0.0
2017-Nov-18 07:53N 01°15' E 103°52'0 0.0
2017-Nov-18 07:26N 01°15' E 103°52'0 0.0
2017-Nov-18 06:56N 01°15' E 103°52'0 0.0
2017-Nov-18 06:20N 01°15' E 103°52'0 0.0
2017-Nov-18 05:56N 01°15' E 103°52'0 0.0
2017-Nov-18 05:26N 01°15' E 103°52'0 0.0
2017-Nov-18 04:59N 01°15' E 103°52'0 0.0
2017-Nov-18 04:29N 01°15' E 103°52'0 0.0
2017-Nov-18 03:56N 01°15' E 103°52'0 0.0
2017-Nov-18 03:29N 01°15' E 103°52'0 0.1
2017-Nov-18 02:56N 01°15' E 103°52'0 0.0
2017-Nov-18 02:20N 01°15' E 103°52'0 0.0
2017-Nov-18 01:56N 01°15' E 103°52'0 0.0
2017-Nov-18 01:26N 01°15' E 103°52'0 0.0
2017-Nov-18 00:59N 01°15' E 103°52'0 0.0
2017-Nov-17 21:14N 01°15' E 103°52'0 0.0
2017-Nov-17 20:55N 01°15' E 103°52'0 0.0
2017-Nov-17 20:13N 01°15' E 103°52'0 0.0
2017-Nov-17 19:55N 01°15' E 103°52'0 0.0
2017-Nov-17 19:19N 01°15' E 103°52'0 0.0
2017-Nov-17 18:55N 01°15' E 103°52'0 0.0
2017-Nov-17 18:28N 01°15' E 103°52'0 0.0
2017-Nov-17 17:55N 01°15' E 103°52'0 0.0
2017-Nov-17 17:25N 01°15' E 103°52'0 0.0
2017-Nov-17 10:55N 01°15' E 103°52'0 0.0
2017-Nov-17 10:25N 01°15' E 103°52'0 0.1
2017-Nov-17 09:58N 01°15' E 103°52'0 0.1
2017-Nov-17 09:25N 01°15' E 103°52'0 0.0
2017-Nov-17 08:55N 01°15' E 103°52'0 0.0
2017-Nov-17 08:28N 01°15' E 103°52'0 0.0
2017-Nov-17 07:55N 01°15' E 103°52'0 0.0
2017-Nov-17 07:28N 01°15' E 103°52'0 0.0
2017-Nov-17 06:55N 01°15' E 103°52'0 0.0
2017-Nov-17 06:28N 01°15' E 103°52'0 0.0
2017-Nov-17 05:55N 01°15' E 103°52'0 0.0
2017-Nov-17 05:19N 01°15' E 103°52'0 0.0
2017-Nov-17 04:49N 01°15' E 103°52'0 0.0
2017-Nov-17 04:25N 01°15' E 103°52'0 0.0
2017-Nov-17 03:55N 01°15' E 103°52'0 0.0
2017-Nov-17 03:25N 01°15' E 103°52'0 0.0
2017-Nov-17 02:49N 01°15' E 103°52'0 0.1
2017-Nov-17 02:25N 01°15' E 103°52'0 0.0
2017-Nov-17 01:55N 01°15' E 103°52'0 0.1
2017-Nov-17 01:25N 01°15' E 103°52'0 0.0
2017-Nov-17 00:55N 01°15' E 103°52'0 0.1
2017-Nov-17 00:25N 01°15' E 103°52'0 0.1
2017-Nov-16 23:55N 01°15' E 103°52'0 0.0
2017-Nov-16 23:19N 01°15' E 103°52'0 0.0
2017-Nov-16 20:25N 01°15' E 103°52'0 0.0
2017-Nov-16 19:34N 01°15' E 103°52'0 0.2
2017-Nov-16 19:13N 01°15' E 103°52'0 0.0
2017-Nov-16 18:49N 01°15' E 103°52'0 0.0
2017-Nov-16 18:25N 01°15' E 103°52'0 0.0
2017-Nov-16 17:55N 01°15' E 103°52'0 0.1
2017-Nov-16 17:01N 01°15' E 103°52'0 0.6
2017-Nov-16 16:55N 01°15' E 103°52'0 0.0
2017-Nov-16 16:25N 01°15' E 103°52'0 0.0
2017-Nov-16 15:25N 01°15' E 103°52'0 0.1
2017-Nov-16 14:44N 01°15' E 103°52'0 0.3
2017-Nov-16 14:30N 01°15' E 103°52'2 4.4
2017-Nov-16 14:00N 01°14' E 103°54'3 6.3
2017-Nov-16 13:30N 01°15' E 103°57'  
2017-Nov-10 10:03N 20°54' E 110°49'010.4
2017-Nov-10 10:00N 20°54' E 110°49'610.5
2017-Nov-10 09:28N 20°59' E 110°46'5 9.7
2017-Nov-10 08:59N 21°02' E 110°42'5 9.4
2017-Nov-10 08:29N 21°03' E 110°37'5 9.6
2017-Nov-10 07:59N 21°05' E 110°33'5 9.2
2017-Nov-10 07:28N 21°05' E 110°27'510.1
2017-Nov-10 07:00N 21°09' E 110°25'5 9.3
2017-Nov-10 06:30N 21°13' E 110°26'1 2.7
2017-Nov-10 05:59N 21°15' E 110°26'0 0.0
2017-Nov-10 05:29N 21°15' E 110°26'0 0.0
2017-Nov-10 04:50N 21°15' E 110°26'0 0.0
2017-Nov-10 04:29N 21°15' E 110°26'0 0.0
2017-Nov-10 03:56N 21°15' E 110°26'0 0.0
2017-Nov-10 03:29N 21°15' E 110°26'0 0.0
2017-Nov-10 02:59N 21°15' E 110°26'0 0.0
2017-Nov-10 02:29N 21°15' E 110°26'0 0.0
2017-Nov-10 01:56N 21°15' E 110°26'0 0.0
2017-Nov-10 01:29N 21°15' E 110°26'0 0.0
2017-Nov-10 00:59N 21°15' E 110°26'0 0.0
2017-Nov-10 00:29N 21°15' E 110°26'0 0.0
2017-Nov-09 23:59N 21°15' E 110°26'0 0.0
2017-Nov-09 23:29N 21°15' E 110°26'0 0.0
2017-Nov-09 22:53N 21°15' E 110°26'0 0.0
2017-Nov-09 22:26N 21°15' E 110°26'0 0.0
2017-Nov-09 21:59N 21°15' E 110°26'0 0.0
2017-Nov-09 21:23N 21°15' E 110°26'0 0.0
2017-Nov-09 20:59N 21°15' E 110°26'0 0.0
2017-Nov-09 20:29N 21°15' E 110°26'0 0.0
2017-Nov-09 19:59N 21°15' E 110°26'0 0.0
2017-Nov-09 19:29N 21°15' E 110°26'0 0.0
2017-Nov-09 18:59N 21°15' E 110°26'0 0.0
2017-Nov-09 18:26N 21°15' E 110°26'0 0.0
2017-Nov-09 17:59N 21°15' E 110°26'0 0.0
2017-Nov-09 17:29N 21°15' E 110°26'0 0.0
2017-Nov-09 16:59N 21°15' E 110°26'0 0.0
2017-Nov-09 16:29N 21°15' E 110°26'0 0.0
2017-Nov-09 15:56N 21°15' E 110°26'0 0.0
2017-Nov-09 15:29N 21°15' E 110°26'0 0.0
2017-Nov-09 14:56N 21°15' E 110°26'0 0.0
2017-Nov-09 14:29N 21°15' E 110°26'0 0.0
2017-Nov-09 13:59N 21°15' E 110°26'0 0.0
2017-Nov-09 13:26N 21°15' E 110°26'0 0.0
2017-Nov-09 12:59N 21°15' E 110°26'0 0.0
2017-Nov-09 12:26N 21°15' E 110°26'0 0.0
2017-Nov-09 11:59N 21°15' E 110°26'0 0.0
2017-Nov-09 11:29N 21°15' E 110°26'0 0.0
2017-Nov-09 10:56N 21°15' E 110°26'0 0.1
2017-Nov-09 10:29N 21°15' E 110°26'0 0.1
2017-Nov-09 09:59N 21°15' E 110°26'0 0.0
2017-Nov-09 09:29N 21°15' E 110°26'0 0.0
2017-Nov-09 08:59N 21°15' E 110°26'0 0.0
2017-Nov-09 08:29N 21°15' E 110°26'0 0.0
2017-Nov-09 07:59N 21°15' E 110°26'0 0.0
2017-Nov-09 07:26N 21°15' E 110°26'0 0.0
2017-Nov-09 06:59N 21°15' E 110°26'0 0.0
2017-Nov-09 06:29N 21°15' E 110°26'0 0.1
2017-Nov-09 05:59N 21°15' E 110°26'0 0.1
2017-Nov-09 05:29N 21°15' E 110°26'0 0.2
2017-Nov-09 04:59N 21°15' E 110°26'0 0.4
2017-Nov-09 04:29N 21°15' E 110°26'0 0.2
2017-Nov-09 03:59N 21°15' E 110°26'0 0.1
2017-Nov-09 03:23N 21°15' E 110°26'0 0.0
2017-Nov-09 02:59N 21°15' E 110°26'0 0.0
2017-Nov-09 02:29N 21°15' E 110°26'0 0.0
2017-Nov-09 01:58N 21°15' E 110°26'0 0.1
2017-Nov-09 01:28N 21°15' E 110°26'0 0.1
2017-Nov-09 00:58N 21°15' E 110°26'0 0.0
2017-Nov-09 00:28N 21°15' E 110°26'0 0.0
2017-Nov-08 23:55N 21°15' E 110°26'0 0.0
2017-Nov-08 23:28N 21°15' E 110°26'0 0.0
2017-Nov-08 22:58N 21°15' E 110°26'0 0.0
2017-Nov-08 22:28N 21°15' E 110°26'0 0.0
2017-Nov-08 21:58N 21°15' E 110°26'0 0.0
2017-Nov-08 21:28N 21°15' E 110°26'0 0.0
2017-Nov-08 20:58N 21°15' E 110°26'0 0.0
2017-Nov-08 20:28N 21°15' E 110°26'0 0.0
2017-Nov-08 19:55N 21°15' E 110°26'0 0.0
2017-Nov-08 19:28N 21°15' E 110°26'0 0.0
2017-Nov-08 18:58N 21°15' E 110°26'0 0.1
2017-Nov-08 18:28N 21°15' E 110°26'0 0.1
2017-Nov-08 17:58N 21°15' E 110°26'0 0.0
2017-Nov-08 17:28N 21°15' E 110°26'0 0.0
2017-Nov-08 16:58N 21°15' E 110°26'0 0.0
2017-Nov-08 16:28N 21°15' E 110°26'0 0.0
2017-Nov-08 15:58N 21°15' E 110°26'0 0.0
2017-Nov-08 15:28N 21°15' E 110°26'0 0.0
2017-Nov-08 14:58N 21°15' E 110°26'0 0.0
2017-Nov-08 14:25N 21°15' E 110°26'0 0.0
2017-Nov-08 13:55N 21°15' E 110°26'  
Track history (hours):
 
Tides and Currents Weather Stations Pressure Air Temp Water Temp Dewpoint Dewpoint Depression Visibility Wind Speed Wind Dir Waves Ship Positions

Wanhe

Last reported at 2017-Nov-18 13:50 UTC. Time now 2018-Feb-20 10:03 UTC.
Position N 01°15' E 103°52'.
Warning: this ship's position is months out of date.

Length 88 m; draft 5.3 m.

Type: Other ship. MMSI: 371521000.

Date/timePositionNaut miles runAvg speedWind from/ knotsBaromVisibWave heightAir tempDewpointWater temp
2017-Nov-18 13:50N 01°15' E 103°52'0 0.0
2017-Nov-18 12:08N 01°15' E 103°52'0 0.0
2017-Nov-18 10:02N 01°15' E 103°52'0 0.6
2017-Nov-18 09:56N 01°15' E 103°52'0 0.1
2017-Nov-18 09:14N 01°15' E 103°52'0 0.3
2017-Nov-18 08:56N 01°15' E 103°52'0 0.0
2017-Nov-18 08:26N 01°15' E 103°52'0 0.0
2017-Nov-18 07:53N 01°15' E 103°52'0 0.0
2017-Nov-18 07:26N 01°15' E 103°52'0 0.0
2017-Nov-18 06:56N 01°15' E 103°52'0 0.0
2017-Nov-18 06:20N 01°15' E 103°52'0 0.0
2017-Nov-18 05:56N 01°15' E 103°52'0 0.0
2017-Nov-18 05:26N 01°15' E 103°52'0 0.0
2017-Nov-18 04:59N 01°15' E 103°52'0 0.0
2017-Nov-18 04:29N 01°15' E 103°52'0 0.0
2017-Nov-18 03:56N 01°15' E 103°52'0 0.0
2017-Nov-18 03:29N 01°15' E 103°52'0 0.1
2017-Nov-18 02:56N 01°15' E 103°52'0 0.0
2017-Nov-18 02:20N 01°15' E 103°52'0 0.0
2017-Nov-18 01:56N 01°15' E 103°52'0 0.0
2017-Nov-18 01:26N 01°15' E 103°52'0 0.0
2017-Nov-18 00:59N 01°15' E 103°52'0 0.0
2017-Nov-17 21:14N 01°15' E 103°52'0 0.0
2017-Nov-17 20:55N 01°15' E 103°52'0 0.0
2017-Nov-17 20:13N 01°15' E 103°52'0 0.0
2017-Nov-17 19:55N 01°15' E 103°52'0 0.0
2017-Nov-17 19:19N 01°15' E 103°52'0 0.0
2017-Nov-17 18:55N 01°15' E 103°52'0 0.0
2017-Nov-17 18:28N 01°15' E 103°52'0 0.0
2017-Nov-17 17:55N 01°15' E 103°52'0 0.0
2017-Nov-17 17:25N 01°15' E 103°52'0 0.0
2017-Nov-17 10:55N 01°15' E 103°52'0 0.0
2017-Nov-17 10:25N 01°15' E 103°52'0 0.1
2017-Nov-17 09:58N 01°15' E 103°52'0 0.1
2017-Nov-17 09:25N 01°15' E 103°52'0 0.0
2017-Nov-17 08:55N 01°15' E 103°52'0 0.0
2017-Nov-17 08:28N 01°15' E 103°52'0 0.0
2017-Nov-17 07:55N 01°15' E 103°52'0 0.0
2017-Nov-17 07:28N 01°15' E 103°52'0 0.0
2017-Nov-17 06:55N 01°15' E 103°52'0 0.0
2017-Nov-17 06:28N 01°15' E 103°52'0 0.0
2017-Nov-17 05:55N 01°15' E 103°52'0 0.0
2017-Nov-17 05:19N 01°15' E 103°52'0 0.0
2017-Nov-17 04:49N 01°15' E 103°52'0 0.0
2017-Nov-17 04:25N 01°15' E 103°52'0 0.0
2017-Nov-17 03:55N 01°15' E 103°52'0 0.0
2017-Nov-17 03:25N 01°15' E 103°52'0 0.0
2017-Nov-17 02:49N 01°15' E 103°52'0 0.1
2017-Nov-17 02:25N 01°15' E 103°52'0 0.0
2017-Nov-17 01:55N 01°15' E 103°52'0 0.1
2017-Nov-17 01:25N 01°15' E 103°52'0 0.0
2017-Nov-17 00:55N 01°15' E 103°52'0 0.1
2017-Nov-17 00:25N 01°15' E 103°52'0 0.1
2017-Nov-16 23:55N 01°15' E 103°52'0 0.0
2017-Nov-16 23:19N 01°15' E 103°52'0 0.0
2017-Nov-16 20:25N 01°15' E 103°52'0 0.0
2017-Nov-16 19:34N 01°15' E 103°52'0 0.2
2017-Nov-16 19:13N 01°15' E 103°52'0 0.0
2017-Nov-16 18:49N 01°15' E 103°52'0 0.0
2017-Nov-16 18:25N 01°15' E 103°52'0 0.0
2017-Nov-16 17:55N 01°15' E 103°52'0 0.1
2017-Nov-16 17:01N 01°15' E 103°52'0 0.6
2017-Nov-16 16:55N 01°15' E 103°52'0 0.0
2017-Nov-16 16:25N 01°15' E 103°52'0 0.0
2017-Nov-16 15:25N 01°15' E 103°52'0 0.1
2017-Nov-16 14:44N 01°15' E 103°52'0 0.3
2017-Nov-16 14:30N 01°15' E 103°52'2 4.4
2017-Nov-16 14:00N 01°14' E 103°54'3 6.3
2017-Nov-16 13:30N 01°15' E 103°57'  
2017-Nov-10 10:03N 20°54' E 110°49'010.4
2017-Nov-10 10:00N 20°54' E 110°49'610.5
2017-Nov-10 09:28N 20°59' E 110°46'5 9.7
2017-Nov-10 08:59N 21°02' E 110°42'5 9.4
2017-Nov-10 08:29N 21°03' E 110°37'5 9.6
2017-Nov-10 07:59N 21°05' E 110°33'5 9.2
2017-Nov-10 07:28N 21°05' E 110°27'510.1
2017-Nov-10 07:00N 21°09' E 110°25'5 9.3
2017-Nov-10 06:30N 21°13' E 110°26'1 2.7
2017-Nov-10 05:59N 21°15' E 110°26'0 0.0
2017-Nov-10 05:29N 21°15' E 110°26'0 0.0
2017-Nov-10 04:50N 21°15' E 110°26'0 0.0
2017-Nov-10 04:29N 21°15' E 110°26'0 0.0
2017-Nov-10 03:56N 21°15' E 110°26'0 0.0
2017-Nov-10 03:29N 21°15' E 110°26'0 0.0
2017-Nov-10 02:59N 21°15' E 110°26'0 0.0
2017-Nov-10 02:29N 21°15' E 110°26'0 0.0
2017-Nov-10 01:56N 21°15' E 110°26'0 0.0
2017-Nov-10 01:29N 21°15' E 110°26'0 0.0
2017-Nov-10 00:59N 21°15' E 110°26'0 0.0
2017-Nov-10 00:29N 21°15' E 110°26'0 0.0
2017-Nov-09 23:59N 21°15' E 110°26'0 0.0
2017-Nov-09 23:29N 21°15' E 110°26'0 0.0
2017-Nov-09 22:53N 21°15' E 110°26'0 0.0
2017-Nov-09 22:26N 21°15' E 110°26'0 0.0
2017-Nov-09 21:59N 21°15' E 110°26'0 0.0
2017-Nov-09 21:23N 21°15' E 110°26'0 0.0
2017-Nov-09 20:59N 21°15' E 110°26'0 0.0
2017-Nov-09 20:29N 21°15' E 110°26'0 0.0
2017-Nov-09 19:59N 21°15' E 110°26'0 0.0
2017-Nov-09 19:29N 21°15' E 110°26'0 0.0
2017-Nov-09 18:59N 21°15' E 110°26'0 0.0
2017-Nov-09 18:26N 21°15' E 110°26'0 0.0
2017-Nov-09 17:59N 21°15' E 110°26'0 0.0
2017-Nov-09 17:29N 21°15' E 110°26'0 0.0
2017-Nov-09 16:59N 21°15' E 110°26'0 0.0
2017-Nov-09 16:29N 21°15' E 110°26'0 0.0
2017-Nov-09 15:56N 21°15' E 110°26'0 0.0
2017-Nov-09 15:29N 21°15' E 110°26'0 0.0
2017-Nov-09 14:56N 21°15' E 110°26'0 0.0
2017-Nov-09 14:29N 21°15' E 110°26'0 0.0
2017-Nov-09 13:59N 21°15' E 110°26'0 0.0
2017-Nov-09 13:26N 21°15' E 110°26'0 0.0
2017-Nov-09 12:59N 21°15' E 110°26'0 0.0
2017-Nov-09 12:26N 21°15' E 110°26'0 0.0
2017-Nov-09 11:59N 21°15' E 110°26'0 0.0
2017-Nov-09 11:29N 21°15' E 110°26'0 0.0
2017-Nov-09 10:56N 21°15' E 110°26'0 0.1
2017-Nov-09 10:29N 21°15' E 110°26'0 0.1
2017-Nov-09 09:59N 21°15' E 110°26'0 0.0
2017-Nov-09 09:29N 21°15' E 110°26'0 0.0
2017-Nov-09 08:59N 21°15' E 110°26'0 0.0
2017-Nov-09 08:29N 21°15' E 110°26'0 0.0
2017-Nov-09 07:59N 21°15' E 110°26'0 0.0
2017-Nov-09 07:26N 21°15' E 110°26'0 0.0
2017-Nov-09 06:59N 21°15' E 110°26'0 0.0
2017-Nov-09 06:29N 21°15' E 110°26'0 0.1
2017-Nov-09 05:59N 21°15' E 110°26'0 0.1
2017-Nov-09 05:29N 21°15' E 110°26'0 0.2
2017-Nov-09 04:59N 21°15' E 110°26'0 0.4
2017-Nov-09 04:29N 21°15' E 110°26'0 0.2
2017-Nov-09 03:59N 21°15' E 110°26'0 0.1
2017-Nov-09 03:23N 21°15' E 110°26'0 0.0
2017-Nov-09 02:59N 21°15' E 110°26'0 0.0
2017-Nov-09 02:29N 21°15' E 110°26'0 0.0
2017-Nov-09 01:58N 21°15' E 110°26'0 0.1
2017-Nov-09 01:28N 21°15' E 110°26'0 0.1
2017-Nov-09 00:58N 21°15' E 110°26'0 0.0
2017-Nov-09 00:28N 21°15' E 110°26'0 0.0
2017-Nov-08 23:55N 21°15' E 110°26'0 0.0
2017-Nov-08 23:28N 21°15' E 110°26'0 0.0
2017-Nov-08 22:58N 21°15' E 110°26'0 0.0
2017-Nov-08 22:28N 21°15' E 110°26'0 0.0
2017-Nov-08 21:58N 21°15' E 110°26'0 0.0
2017-Nov-08 21:28N 21°15' E 110°26'0 0.0
2017-Nov-08 20:58N 21°15' E 110°26'0 0.0
2017-Nov-08 20:28N 21°15' E 110°26'0 0.0
2017-Nov-08 19:55N 21°15' E 110°26'0 0.0
2017-Nov-08 19:28N 21°15' E 110°26'0 0.0
2017-Nov-08 18:58N 21°15' E 110°26'0 0.1
2017-Nov-08 18:28N 21°15' E 110°26'0 0.1
2017-Nov-08 17:58N 21°15' E 110°26'0 0.0
2017-Nov-08 17:28N 21°15' E 110°26'0 0.0
2017-Nov-08 16:58N 21°15' E 110°26'0 0.0
2017-Nov-08 16:28N 21°15' E 110°26'0 0.0
2017-Nov-08 15:58N 21°15' E 110°26'0 0.0
2017-Nov-08 15:28N 21°15' E 110°26'0 0.0
2017-Nov-08 14:58N 21°15' E 110°26'0 0.0
2017-Nov-08 14:25N 21°15' E 110°26'0 0.0
2017-Nov-08 13:55N 21°15' E 110°26'  

Dump ship's entire track history